Terminal Aerodrome Forecast
Issued by NWS

Home | Current Version | Previous Version | Text Only | Print | Product List | Glossary On
Versions: 1 2 3 4 5 6 7 8 9 10 11 12 13 14 15 16 17 18 19 20 21 22 23 24 25
000
FTUS41 KOKX 281120
TAFSWF
TAF
KSWF 281120Z 2812/2918 VRB04KT P6SM FEW250
     FM281600 26008KT P6SM FEW050 FEW250
     FM281800 24008KT P6SM VCSH SCT050 SCT250
     FM290000 VRB04KT P6SM BKN250
     FM290500 00000KT 5SM BR SKC
     FM291300 VRB04KT P6SM SKC
     FM291600 25006KT P6SM SCT250
      AMD NOT SKED=

USA.gov is the U.S. government's official web portal to all federal, state and local government web resources and services.